Atwood, Wisconsin
Current Conditions -  °F | °C
As of 4:15 PM on Friday 31 Oct 2014 (Local Time) from KMDZ Reporting Station
Scattered Clouds Scattered Clouds  
Wind Chill: 25°   Ceiling: Unl
Heat Index: 33°   Visibility: 10mi
Dew Point: 20°   Wind: 8mph
Humidity: 59%   Direction: 10°N
Pressure: 30.41"   Gusts: NA
Location:  44.9782°N, 90.5368°W
Report Text: KMDZ 312115Z AUTO 01007KT 10SM SCT042 00/M07 A3041 RMK AO2 T00031068
Loading
Personal Weather Stations






























Interactive Weather Map
Tropical Storm Tracking
New forecast layout! Learn more

10-Day Weather Forecast

Advertisements
Track Severe Weather on mobile